Time;durP1;ratioP1;P1;durP2;ratioP2;P2;SDS_P1;SDS_P2;PMS_P1;PMS_P2;Temp;Humidity;BMP_temperature;BMP_pressure;BME280_temperature;BME280_humidity;BME280_pressure;Samples;Min_cycle;Max_cycle;Signal;HPM_P1;HPM_P2
2022/09/13 00:01:09;;;;;;;4.47;4.07;;;22.30;85.70;;;;;;4972698;28;20422;-73
2022/09/13 00:03:40;;;;;;;4.60;4.20;;;22.30;85.70;;;;;;4970143;28;20519;-73
2022/09/13 00:06:13;;;;;;;5.53;4.00;;;22.20;85.70;;;;;;4954263;29;20967;-72
2022/09/13 00:08:42;;;;;;;4.40;4.00;;;22.20;85.60;;;;;;4939195;28;20449;-73
2022/09/13 00:11:15;;;;;;;4.80;4.40;;;22.20;85.60;;;;;;4948438;29;20890;-72
2022/09/13 00:13:41;;;;;;;4.37;4.00;;;22.20;85.70;;;;;;4943534;28;20428;-73
2022/09/13 00:16:14;;;;;;;4.03;3.70;;;22.20;85.70;;;;;;4972892;28;20774;-72
2022/09/13 00:18:42;;;;;;;3.90;3.60;;;22.20;85.70;;;;;;4969925;28;20496;-72
2022/09/13 00:21:13;;;;;;;4.63;3.87;;;22.20;85.70;;;;;;4954030;29;20398;-72
2022/09/13 00:23:47;;;;;;;3.80;3.50;;;22.20;85.70;;;;;;4958356;28;20904;-72
2022/09/13 00:26:21;;;;;;;8.60;4.40;;;22.20;85.70;;;;;;4934883;29;20493;-73
2022/09/13 00:28:59;;;;;;;4.53;3.60;;;22.20;85.80;;;;;;4958292;28;20457;-73
2022/09/13 00:31:29;;;;;;;3.53;3.23;;;22.10;85.80;;;;;;4955630;28;20989;-73
2022/09/13 00:34:01;;;;;;;3.97;3.63;;;22.10;85.80;;;;;;4953853;28;20202;-72
2022/09/13 00:36:30;;;;;;;4.30;3.90;;;22.10;85.90;;;;;;4957028;28;20755;-72
2022/09/13 00:38:56;;;;;;;4.30;3.63;;;22.10;85.90;;;;;;4968104;28;20785;-72
2022/09/13 00:41:22;;;;;;;4.83;3.93;;;22.10;85.90;;;;;;4953548;29;20478;-73
2022/09/13 00:43:54;;;;;;;6.40;3.97;;;22.10;86.00;;;;;;4955829;28;20971;-72
2022/09/13 00:46:32;;;;;;;4.63;4.17;;;22.10;86.00;;;;;;4937722;29;20195;-72
2022/09/13 00:49:26;;;;;;;4.97;4.47;;;22.10;86.00;;;;;;4944095;28;20433;-72
2022/09/13 00:51:58;;;;;;;3.83;3.53;;;22.10;86.10;;;;;;4973953;28;20437;-72
2022/09/13 00:54:31;;;;;;;4.10;3.80;;;22.10;86.10;;;;;;4947850;28;20552;-72
2022/09/13 00:57:01;;;;;;;4.17;3.80;;;22.10;86.20;;;;;;4972855;28;20993;-72
2022/09/13 00:59:34;;;;;;;4.07;3.77;;;22.10;86.20;;;;;;4962253;28;20450;-72
2022/09/13 01:02:03;;;;;;;3.97;3.67;;;22.00;86.20;;;;;;4937442;29;20773;-72
2022/09/13 01:04:35;;;;;;;4.13;3.70;;;22.00;86.30;;;;;;4962353;28;20948;-73
2022/09/13 01:07:09;;;;;;;4.30;4.00;;;22.00;86.30;;;;;;4956520;28;20406;-72
2022/09/13 01:09:44;;;;;;;3.90;3.60;;;22.00;86.30;;;;;;4964505;28;20467;-72
2022/09/13 01:12:32;;;;;;;4.20;3.80;;;22.00;86.30;;;;;;4958578;28;20556;-73
2022/09/13 01:15:03;;;;;;;3.73;3.43;;;22.00;86.30;;;;;;4937041;29;20583;-73
2022/09/13 01:17:35;;;;;;;3.70;3.40;;;22.00;86.30;;;;;;4954360;28;20512;-73
2022/09/13 01:20:09;;;;;;;4.40;4.00;;;22.00;86.30;;;;;;4958451;28;20415;-72
2022/09/13 01:22:44;;;;;;;4.50;3.53;;;22.00;86.40;;;;;;4954343;28;20421;-72
2022/09/13 01:25:21;;;;;;;4.67;4.17;;;22.00;86.40;;;;;;4941082;29;20881;-73
2022/09/13 01:28:18;;;;;;;4.00;3.53;;;22.00;86.40;;;;;;4958182;28;20415;-73
2022/09/13 01:31:02;;;;;;;4.60;4.20;;;22.00;86.40;;;;;;4955074;28;20569;-72
2022/09/13 01:33:46;;;;;;;4.50;4.10;;;22.00;86.30;;;;;;4973094;28;20404;-73
2022/09/13 01:36:32;;;;;;;4.10;3.80;;;22.00;86.40;;;;;;4947954;29;20972;-73
2022/09/13 01:39:26;;;;;;;4.10;3.80;;;22.00;86.40;;;;;;4942308;28;20444;-73
2022/09/13 01:42:27;;;;;;;4.20;3.80;;;21.90;86.20;;;;;;4942014;29;20431;-73
2022/09/13 01:45:15;;;;;;;4.67;4.07;;;21.90;86.30;;;;;;4947924;28;20485;-72
2022/09/13 01:47:44;;;;;;;4.63;3.53;;;21.90;86.30;;;;;;4936775;29;20481;-73
2022/09/13 01:50:42;;;;;;;4.40;4.00;;;21.90;86.20;;;;;;4966919;28;20483;-72
2022/09/13 01:53:54;;;;;;;4.73;4.10;;;21.90;86.20;;;;;;4933062;29;20455;-72
2022/09/13 01:56:34;;;;;;;5.37;3.90;;;21.90;86.20;;;;;;4937137;28;20460;-72
2022/09/13 01:59:13;;;;;;;4.13;3.73;;;21.90;86.30;;;;;;4967948;28;20772;-72
2022/09/13 02:02:03;;;;;;;3.87;3.57;;;21.90;86.30;;;;;;4960738;28;20445;-72
2022/09/13 02:04:47;;;;;;;4.57;4.17;;;21.90;86.30;;;;;;4961941;28;20445;-72
2022/09/13 02:07:23;;;;;;;3.90;3.50;;;21.90;86.40;;;;;;4953328;28;20401;-73
2022/09/13 02:10:10;;;;;;;4.40;3.60;;;21.90;86.30;;;;;;4949049;28;20495;-72
2022/09/13 02:12:47;;;;;;;3.93;3.63;;;21.80;86.30;;;;;;4936430;29;20913;-73
2022/09/13 02:15:17;;;;;;;4.37;3.90;;;21.90;86.40;;;;;;4960711;28;20453;-72
2022/09/13 02:17:56;;;;;;;4.60;4.13;;;21.80;86.20;;;;;;4952550;29;20459;-72
2022/09/13 02:20:30;;;;;;;3.93;3.63;;;21.90;86.30;;;;;;4968842;28;20453;-72
2022/09/13 02:23:03;;;;;;;4.43;4.03;;;21.80;86.10;;;;;;4937186;29;20453;-72
2022/09/13 02:25:32;;;;;;;4.30;3.90;;;21.80;86.20;;;;;;4955754;28;21001;-72
2022/09/13 02:28:04;;;;;;;4.73;4.33;;;21.80;86.20;;;;;;4924741;29;20438;-72
2022/09/13 02:30:35;;;;;;;4.50;3.97;;;21.80;86.20;;;;;;4953817;28;20461;-72
2022/09/13 02:33:14;;;;;;;4.40;3.93;;;21.80;86.20;;;;;;4961582;28;20442;-73
2022/09/13 02:35:50;;;;;;;4.00;3.60;;;21.80;86.30;;;;;;4973568;28;20445;-73
2022/09/13 02:38:44;;;;;;;4.50;4.10;;;21.80;86.20;;;;;;4959174;28;20524;-73
2022/09/13 02:41:39;;;;;;;3.60;3.30;;;21.80;86.30;;;;;;4939832;28;20451;-73
2022/09/13 02:44:17;;;;;;;4.87;4.37;;;21.80;86.40;;;;;;4971972;28;20444;-72
2022/09/13 02:47:23;;;;;;;4.57;3.80;;;21.80;86.40;;;;;;4956030;28;20424;-73
2022/09/13 02:50:07;;;;;;;5.70;3.77;;;21.80;86.40;;;;;;4955789;29;20452;-72
2022/09/13 02:52:55;;;;;;;4.83;3.90;;;21.80;86.40;;;;;;4966227;28;20516;-73
2022/09/13 02:55:35;;;;;;;3.63;3.33;;;21.70;86.30;;;;;;4924604;29;20446;-73
2022/09/13 02:58:21;;;;;;;5.60;4.10;;;21.70;86.30;;;;;;4973420;28;20587;-73
2022/09/13 03:00:52;;;;;;;4.23;3.83;;;21.80;86.50;;;;;;4960069;28;20966;-73
2022/09/13 03:03:20;;;;;;;4.73;4.33;;;21.70;86.40;;;;;;4955782;29;20505;-72
2022/09/13 03:05:48;;;;;;;4.37;4.00;;;21.70;86.40;;;;;;4950711;28;20445;-72
2022/09/13 03:08:20;;;;;;;4.10;3.80;;;21.70;86.50;;;;;;4957869;28;20452;-72
2022/09/13 03:11:01;;;;;;;4.53;3.90;;;21.70;86.50;;;;;;4953519;28;20829;-73
2022/09/13 03:14:07;;;;;;;4.00;3.67;;;21.70;86.50;;;;;;4967409;28;20811;-73
2022/09/13 03:16:57;;;;;;;4.00;3.67;;;21.70;86.50;;;;;;4945785;29;20853;-72
2022/09/13 03:19:29;;;;;;;4.30;3.90;;;21.70;86.50;;;;;;4934151;28;20432;-73
2022/09/13 03:22:22;;;;;;;4.50;4.07;;;21.70;86.60;;;;;;4976115;28;20409;-73
2022/09/13 03:25:29;;;;;;;7.50;3.80;;;21.70;86.60;;;;;;4974213;28;20453;-72
2022/09/13 03:28:01;;;;;;;5.13;4.63;;;21.70;86.70;;;;;;4973371;28;20449;-72
2022/09/13 03:30:37;;;;;;;4.30;3.87;;;21.70;86.80;;;;;;4958561;28;20551;-73
2022/09/13 03:33:27;;;;;;;4.47;4.07;;;21.70;86.80;;;;;;4923041;29;20444;-73
2022/09/13 03:36:34;;;;;;;3.83;3.53;;;21.70;86.90;;;;;;4942278;28;20946;-73
2022/09/13 03:39:14;;;;;;;4.80;4.40;;;21.70;87.00;;;;;;4945848;29;20508;-72
2022/09/13 03:41:47;;;;;;;4.60;4.20;;;21.60;86.90;;;;;;4933841;29;20458;-72
2022/09/13 03:44:24;;;;;;;4.00;3.60;;;21.60;87.00;;;;;;4927370;28;20510;-72
2022/09/13 03:46:55;;;;;;;4.37;3.97;;;21.60;87.00;;;;;;4973900;28;20479;-73
2022/09/13 03:49:26;;;;;;;3.90;3.60;;;21.60;87.20;;;;;;4950368;28;20454;-73
2022/09/13 03:51:55;;;;;;;4.30;3.80;;;21.60;87.20;;;;;;4954928;28;20931;-73
2022/09/13 03:54:30;;;;;;;4.10;3.80;;;21.60;87.30;;;;;;4962473;28;20531;-73
2022/09/13 03:57:22;;;;;;;4.03;3.73;;;21.60;87.40;;;;;;4936855;29;20469;-73
2022/09/13 03:59:54;;;;;;;4.93;3.80;;;21.60;87.50;;;;;;4958157;28;20429;-72
2022/09/13 04:02:25;;;;;;;4.50;4.20;;;21.60;87.60;;;;;;4973880;28;20452;-72
2022/09/13 04:04:53;;;;;;;5.00;4.50;;;21.60;87.70;;;;;;4962790;28;20451;-73
2022/09/13 04:07:22;;;;;;;4.00;3.60;;;21.60;87.80;;;;;;4938481;28;20426;-72
2022/09/13 04:09:54;;;;;;;4.80;4.40;;;21.60;87.80;;;;;;4943239;29;20465;-72
2022/09/13 04:12:20;;;;;;;4.93;4.50;;;21.60;87.90;;;;;;4935414;29;20411;-73
2022/09/13 04:14:47;;;;;;;4.63;4.03;;;21.50;87.80;;;;;;4938632;29;21177;-73
2022/09/13 04:17:18;;;;;;;5.70;4.13;;;21.60;88.00;;;;;;4954395;29;20456;-73
2022/09/13 04:19:45;;;;;;;4.40;4.00;;;21.50;87.90;;;;;;4961280;28;20435;-73
2022/09/13 04:22:17;;;;;;;4.30;3.90;;;21.50;88.00;;;;;;4962264;28;20438;-73
2022/09/13 04:24:47;;;;;;;4.10;3.80;;;21.50;88.10;;;;;;4974704;28;20969;-72
2022/09/13 04:27:15;;;;;;;5.03;4.43;;;21.50;88.20;;;;;;4966838;28;20947;-73
2022/09/13 04:29:46;;;;;;;4.30;3.97;;;21.50;88.20;;;;;;4948078;28;20539;-73
2022/09/13 04:32:17;;;;;;;3.93;3.53;;;21.50;88.30;;;;;;4967183;28;20425;-73
2022/09/13 04:34:46;;;;;;;4.77;4.30;;;21.50;88.40;;;;;;4954941;28;20442;-72
2022/09/13 04:37:14;;;;;;;5.73;4.10;;;21.50;88.50;;;;;;4959342;28;20464;-73
2022/09/13 04:39:40;;;;;;;4.13;3.73;;;21.50;88.50;;;;;;4964106;28;20430;-72
2022/09/13 04:42:10;;;;;;;6.73;4.03;;;21.50;88.50;;;;;;4959580;28;20978;-72
2022/09/13 04:44:39;;;;;;;4.03;3.73;;;21.50;88.50;;;;;;4955826;28;20449;-72
2022/09/13 04:47:07;;;;;;;4.37;3.97;;;21.50;88.50;;;;;;4958305;28;20957;-72
2022/09/13 04:49:33;;;;;;;3.53;3.23;;;21.50;88.50;;;;;;4965618;28;20491;-72
2022/09/13 04:52:02;;;;;;;4.33;3.77;;;21.50;88.50;;;;;;4959759;28;20505;-72
2022/09/13 04:54:30;;;;;;;4.40;3.83;;;21.50;88.60;;;;;;4956998;28;20207;-73
2022/09/13 04:56:59;;;;;;;4.03;3.73;;;21.40;88.50;;;;;;4968848;28;20893;-73
2022/09/13 04:59:27;;;;;;;4.20;3.83;;;21.50;88.70;;;;;;4959911;28;20838;-72
2022/09/13 05:01:55;;;;;;;4.10;3.70;;;21.40;88.50;;;;;;4970423;28;20442;-75
2022/09/13 05:04:24;;;;;;;4.20;3.80;;;21.40;88.50;;;;;;4953415;28;20453;-72
2022/09/13 05:06:52;;;;;;;6.13;4.00;;;21.40;89.40;;;;;;4956313;28;20780;-73
2022/09/13 05:09:26;;;;;;;4.10;3.80;;;21.40;88.60;;;;;;5042601;23;21732;-73
2022/09/13 05:11:56;;;;;;;4.17;3.80;;;21.40;88.70;;;;;;4957878;28;20559;-73
2022/09/13 05:14:22;;;;;;;4.07;3.77;;;21.40;88.80;;;;;;4992717;28;20435;-73
2022/09/13 05:16:51;;;;;;;4.20;3.77;;;21.40;88.90;;;;;;4990184;28;20984;-73
2022/09/13 05:19:17;;;;;;;5.00;4.60;;;21.40;88.90;;;;;;4983584;28;20472;-73
2022/09/13 05:21:43;;;;;;;5.87;3.93;;;21.40;89.00;;;;;;4972667;28;20209;-72
2022/09/13 05:24:09;;;;;;;4.57;4.17;;;21.40;88.90;;;;;;4972246;28;20443;-73
2022/09/13 05:26:35;;;;;;;5.10;4.60;;;21.40;88.90;;;;;;4972155;28;20508;-73
2022/09/13 05:29:05;;;;;;;4.10;3.80;;;21.40;89.70;;;;;;4940124;28;20917;-73
2022/09/13 05:31:35;;;;;;;4.87;3.90;;;21.40;89.00;;;;;;4955022;28;20812;-73
2022/09/13 05:34:12;;;;;;;4.50;4.10;;;21.40;89.00;;;;;;4973093;28;20455;-73
2022/09/13 05:36:39;;;;;;;4.60;4.20;;;21.40;89.00;;;;;;4971851;28;20418;-73
2022/09/13 05:39:06;;;;;;;4.73;4.27;;;21.40;89.10;;;;;;4936231;29;20432;-73
2022/09/13 05:41:35;;;;;;;5.57;4.10;;;21.30;88.80;;;;;;4952528;29;20501;-73
2022/09/13 05:44:05;;;;;;;5.80;4.20;;;21.30;88.90;;;;;;4952748;28;20465;-73
2022/09/13 05:46:33;;;;;;;4.00;3.70;;;21.30;88.90;;;;;;4952781;29;20448;-73
2022/09/13 05:48:59;;;;;;;4.50;4.00;;;21.30;88.90;;;;;;4936580;29;20457;-73
2022/09/13 05:51:26;;;;;;;4.53;3.93;;;21.30;89.00;;;;;;4952507;29;20438;-73
2022/09/13 05:53:56;;;;;;;4.77;4.37;;;21.30;89.00;;;;;;4968536;28;20833;-73
2022/09/13 05:56:28;;;;;;;3.93;3.63;;;21.30;89.00;;;;;;4943921;29;20429;-73
2022/09/13 05:58:54;;;;;;;4.50;4.10;;;21.30;89.00;;;;;;4952294;29;20484;-73
2022/09/13 06:01:27;;;;;;;7.67;4.80;;;21.30;89.00;;;;;;4952512;29;20403;-73
2022/09/13 06:03:58;;;;;;;4.87;4.10;;;21.30;89.10;;;;;;4952404;29;20484;-73
2022/09/13 06:06:28;;;;;;;4.50;4.10;;;21.30;89.00;;;;;;4952334;29;21008;-73
2022/09/13 06:08:57;;;;;;;4.80;4.40;;;21.30;89.00;;;;;;4967148;28;20474;-72
2022/09/13 06:11:25;;;;;;;5.03;4.53;;;21.30;89.10;;;;;;4971297;28;20819;-73
2022/09/13 06:13:53;;;;;;;5.67;4.37;;;21.30;89.10;;;;;;4972761;28;20435;-74
2022/09/13 06:16:20;;;;;;;3.80;3.50;;;21.30;89.00;;;;;;4972696;28;20409;-74
2022/09/13 06:18:46;;;;;;;3.90;3.60;;;21.30;89.10;;;;;;4971328;28;20848;-74
2022/09/13 06:21:19;;;;;;;4.83;3.60;;;21.30;89.10;;;;;;4972632;28;20446;-75
2022/09/13 06:23:52;;;;;;;7.23;4.23;;;21.20;89.10;;;;;;4971692;28;20467;-74
2022/09/13 06:26:26;;;;;;;4.73;4.27;;;21.20;89.10;;;;;;4972831;28;20424;-74
2022/09/13 06:28:57;;;;;;;4.87;4.47;;;21.20;89.10;;;;;;4955947;28;20981;-74
2022/09/13 06:31:28;;;;;;;4.10;3.70;;;21.20;89.10;;;;;;4955393;28;20424;-74
2022/09/13 06:33:59;;;;;;;5.33;3.77;;;21.20;89.20;;;;;;4971394;28;20854;-74
2022/09/13 06:36:25;;;;;;;4.53;4.13;;;21.20;89.20;;;;;;4973323;28;20409;-75
2022/09/13 06:38:51;;;;;;;4.93;4.40;;;21.20;89.20;;;;;;4971495;28;20535;-73
2022/09/13 06:41:23;;;;;;;4.87;3.70;;;21.20;89.20;;;;;;4971372;28;20436;-73
2022/09/13 06:43:54;;;;;;;4.60;3.83;;;21.20;89.30;;;;;;4971541;28;20801;-72
2022/09/13 06:46:46;;;;;;;4.60;4.20;;;21.20;89.30;;;;;;4952112;29;20442;-73
2022/09/13 06:49:12;;;;;;;4.90;3.90;;;21.20;89.30;;;;;;4952167;29;21017;-73
2022/09/13 06:51:45;;;;;;;4.60;4.20;;;21.20;89.40;;;;;;4951995;29;20905;-73
2022/09/13 06:54:14;;;;;;;5.03;4.63;;;21.20;89.40;;;;;;4951765;29;20441;-73
2022/09/13 06:56:39;;;;;;;6.10;3.77;;;21.20;89.50;;;;;;4936104;29;20951;-73
2022/09/13 06:59:11;;;;;;;4.70;4.23;;;21.20;89.50;;;;;;4936415;29;20490;-73
2022/09/13 07:01:40;;;;;;;4.00;3.70;;;21.20;89.60;;;;;;4936165;29;20797;-72
2022/09/13 07:04:10;;;;;;;4.10;3.70;;;21.20;89.50;;;;;;4951908;29;20433;-73
2022/09/13 07:06:46;;;;;;;5.03;4.53;;;21.20;89.40;;;;;;4936055;28;20437;-73
2022/09/13 07:09:21;;;;;;;4.50;4.10;;;21.20;89.50;;;;;;4956364;29;20454;-73
2022/09/13 07:11:52;;;;;;;4.13;3.83;;;21.20;89.50;;;;;;4955535;28;20445;-73
2022/09/13 07:14:24;;;;;;;4.20;3.77;;;21.20;89.60;;;;;;4963199;28;20511;-72
2022/09/13 07:16:53;;;;;;;5.23;4.73;;;21.20;89.50;;;;;;4958846;28;20411;-73
2022/09/13 07:19:25;;;;;;;4.53;4.13;;;21.20;89.50;;;;;;4975528;28;20835;-72
2022/09/13 07:21:54;;;;;;;4.97;4.47;;;21.20;89.50;;;;;;4974690;28;20452;-72
2022/09/13 07:24:26;;;;;;;4.87;4.37;;;21.20;89.60;;;;;;4975549;28;20436;-72
2022/09/13 07:26:57;;;;;;;5.93;4.40;;;21.20;89.70;;;;;;4957602;28;20446;-72
2022/09/13 07:29:25;;;;;;;5.60;5.00;;;21.10;89.60;;;;;;4940357;28;20503;-72
2022/09/13 07:31:57;;;;;;;4.63;4.23;;;21.20;89.90;;;;;;4976028;28;20424;-72
2022/09/13 07:34:29;;;;;;;7.63;4.40;;;21.20;89.80;;;;;;4957545;28;20859;-72
2022/09/13 07:36:57;;;;;;;4.77;4.03;;;21.20;89.80;;;;;;4972514;28;20434;-73
2022/09/13 07:39:25;;;;;;;5.20;4.10;;;21.20;89.80;;;;;;4933521;28;20474;-72
2022/09/13 07:41:59;;;;;;;5.50;4.10;;;21.20;89.90;;;;;;4973662;28;21110;-72
2022/09/13 07:44:29;;;;;;;6.23;4.30;;;21.10;89.70;;;;;;4956795;28;20991;-72
2022/09/13 07:46:57;;;;;;;6.07;4.73;;;21.20;89.90;;;;;;4973783;28;20434;-72
2022/09/13 07:49:29;;;;;;;4.87;4.43;;;21.20;89.80;;;;;;4973713;28;20867;-72
2022/09/13 07:52:00;;;;;;;4.20;3.80;;;21.10;89.70;;;;;;4973574;28;20423;-72
2022/09/13 07:54:49;;;;;;;5.57;4.63;;;21.20;89.90;;;;;;4968493;28;20453;-72
2022/09/13 07:57:15;;;;;;;4.50;4.10;;;21.20;89.80;;;;;;4957364;28;20556;-72
2022/09/13 08:00:08;;;;;;;4.67;3.73;;;21.20;89.90;;;;;;4966680;28;20521;-72
2022/09/13 08:02:40;;;;;;;6.33;4.30;;;21.20;89.80;;;;;;4955711;28;20401;-72
2022/09/13 08:05:08;;;;;;;4.07;3.67;;;21.10;89.70;;;;;;4974141;28;20533;-73
2022/09/13 08:07:36;;;;;;;4.87;4.37;;;21.20;89.90;;;;;;4986605;28;20457;-72
2022/09/13 08:10:05;;;;;;;4.90;4.27;;;21.20;89.90;;;;;;4966109;28;20437;-73
2022/09/13 08:12:31;;;;;;;4.53;3.70;;;21.20;89.90;;;;;;4957584;28;20410;-73
2022/09/13 08:14:57;;;;;;;5.37;3.97;;;21.20;89.90;;;;;;4974699;28;21073;-73
2022/09/13 08:17:23;;;;;;;4.33;3.90;;;21.20;90.20;;;;;;4957300;28;20467;-73
2022/09/13 08:19:49;;;;;;;4.80;4.30;;;21.20;89.90;;;;;;4972207;28;20549;-72
2022/09/13 08:22:20;;;;;;;5.47;4.47;;;21.20;89.90;;;;;;4973723;28;20528;-73
2022/09/13 08:24:45;;;;;;;4.10;3.70;;;21.20;89.90;;;;;;4974152;28;20455;-76
2022/09/13 08:27:12;;;;;;;4.30;3.87;;;21.20;90.30;;;;;;4957311;28;20563;-73
2022/09/13 08:29:40;;;;;;;4.77;4.27;;;21.20;89.90;;;;;;4967795;28;20430;-72
2022/09/13 08:32:06;;;;;;;4.40;4.00;;;21.20;89.80;;;;;;4953461;28;21074;-73
2022/09/13 08:34:32;;;;;;;6.63;3.93;;;21.20;89.70;;;;;;4938214;29;20457;-72
2022/09/13 08:37:05;;;;;;;4.33;3.97;;;21.20;89.70;;;;;;4956770;28;20829;-73
2022/09/13 08:39:34;;;;;;;4.97;4.57;;;21.20;89.70;;;;;;4939636;29;20414;-78
2022/09/13 08:42:31;;;;;;;4.70;4.30;;;21.30;89.70;;;;;;4955712;28;20588;-78
2022/09/13 08:45:00;;;;;;;5.90;4.20;;;21.30;89.80;;;;;;4938754;29;20481;-76
2022/09/13 08:47:30;;;;;;;5.10;3.90;;;21.30;89.90;;;;;;4938311;29;20433;-74
2022/09/13 08:50:09;;;;;;;4.30;3.90;;;21.30;89.80;;;;;;4947148;29;20458;-72
2022/09/13 08:52:59;;;;;;;5.07;4.10;;;21.30;89.80;;;;;;4951726;29;20841;-73
2022/09/13 08:55:28;;;;;;;4.63;4.23;;;21.30;89.70;;;;;;4953479;29;20540;-73
2022/09/13 08:58:10;;;;;;;4.27;3.80;;;21.30;89.70;;;;;;4954803;28;20458;-73
2022/09/13 09:00:46;;;;;;;4.43;4.00;;;21.30;89.70;;;;;;4977969;28;20982;-72
2022/09/13 09:03:22;;;;;;;4.83;3.70;;;21.30;89.60;;;;;;4969472;28;20423;-72
2022/09/13 09:05:53;;;;;;;4.70;4.13;;;21.40;89.80;;;;;;4943583;29;20811;-73
2022/09/13 09:08:52;;;;;;;6.50;4.77;;;21.30;89.70;;;;;;4933229;28;20476;-73
2022/09/13 09:11:41;;;;;;;4.43;3.90;;;21.40;89.80;;;;;;4972750;28;20456;-73
2022/09/13 09:14:14;;;;;;;6.87;3.63;;;21.40;89.90;;;;;;4973245;28;20460;-73
2022/09/13 09:16:54;;;;;;;4.93;4.30;;;21.40;89.80;;;;;;4972362;28;20423;-73
2022/09/13 09:19:39;;;;;;;4.33;4.03;;;21.40;89.80;;;;;;4972195;28;20408;-73
2022/09/13 09:22:15;;;;;;;4.00;3.60;;;21.40;89.80;;;;;;4972065;28;20433;-73
2022/09/13 09:24:48;;;;;;;4.50;3.77;;;21.40;89.80;;;;;;4956233;28;20524;-73
2022/09/13 09:27:20;;;;;;;6.27;4.50;;;21.50;89.90;;;;;;4972865;28;21039;-73
2022/09/13 09:29:56;;;;;;;4.33;3.93;;;21.50;89.80;;;;;;4955360;28;20423;-73
2022/09/13 09:32:47;;;;;;;5.40;3.97;;;21.50;89.80;;;;;;4970347;28;20420;-73
2022/09/13 09:35:27;;;;;;;4.57;4.17;;;21.60;89.90;;;;;;4954056;28;20830;-73
2022/09/13 09:38:32;;;;;;;5.23;4.43;;;21.60;89.80;;;;;;4970243;28;20489;-73
2022/09/13 09:41:04;;;;;;;4.73;3.80;;;21.60;89.70;;;;;;4913341;29;20455;-73
2022/09/13 09:43:41;;;;;;;4.83;4.33;;;21.60;89.70;;;;;;4897591;29;20522;-73
2022/09/13 09:46:18;;;;;;;4.77;4.10;;;21.60;89.60;;;;;;4932217;29;20503;-73
2022/09/13 09:48:54;;;;;;;5.10;3.90;;;21.70;89.70;;;;;;4891739;29;20510;-73
2022/09/13 09:51:25;;;;;;;7.20;3.73;;;21.70;89.80;;;;;;4931247;29;20431;-73
2022/09/13 09:53:58;;;;;;;5.47;4.53;;;21.70;89.80;;;;;;4916087;29;20467;-73
2022/09/13 09:56:37;;;;;;;4.97;4.33;;;21.70;89.70;;;;;;4910643;29;20479;-73
2022/09/13 09:59:03;;;;;;;4.87;4.47;;;21.80;89.90;;;;;;4889532;29;20581;-73
2022/09/13 10:01:33;;;;;;;6.70;4.40;;;21.80;90.00;;;;;;4916421;29;20418;-73
2022/09/13 10:04:07;;;;;;;8.43;4.20;;;21.80;90.00;;;;;;4901574;29;20464;-73
2022/09/13 10:06:39;;;;;;;5.13;4.33;;;21.90;90.00;;;;;;4897786;29;21005;-74
2022/09/13 10:09:21;;;;;;;8.00;5.30;;;21.90;90.00;;;;;;4881661;29;20544;-73
2022/09/13 10:11:50;;;;;;;6.00;4.77;;;21.90;90.10;;;;;;4910279;28;20441;-73
2022/09/13 10:14:37;;;;;;;5.90;4.10;;;21.90;90.10;;;;;;4954091;28;20462;-73
2022/09/13 10:17:29;;;;;;;8.70;4.80;;;21.90;90.00;;;;;;4971751;28;20428;-73
2022/09/13 10:20:18;;;;;;;5.20;4.60;;;22.00;90.10;;;;;;4951371;29;20450;-73
2022/09/13 10:23:15;;;;;;;5.17;4.67;;;22.00;90.10;;;;;;4962689;28;20437;-73
2022/09/13 10:25:47;;;;;;;5.50;4.10;;;22.00;90.00;;;;;;4968650;28;20452;-73
2022/09/13 10:28:56;;;;;;;6.07;5.13;;;22.00;90.00;;;;;;4958554;28;20655;-73
2022/09/13 10:31:29;;;;;;;5.90;5.10;;;22.10;90.10;;;;;;4971834;28;20912;-73
2022/09/13 10:34:05;;;;;;;7.67;4.63;;;22.10;90.20;;;;;;4971755;28;20809;-73
2022/09/13 10:36:43;;;;;;;6.10;5.50;;;22.10;90.20;;;;;;4937863;28;20453;-73
2022/09/13 10:39:17;;;;;;;6.47;4.90;;;22.10;90.20;;;;;;4956902;28;20485;-73
2022/09/13 10:42:07;;;;;;;7.33;5.00;;;22.20;90.20;;;;;;4956719;28;20503;-73
2022/09/13 10:44:42;;;;;;;6.63;5.37;;;22.20;90.20;;;;;;4987173;28;20465;-73
2022/09/13 10:47:22;;;;;;;6.60;4.60;;;22.20;90.20;;;;;;4974660;28;20448;-73
2022/09/13 10:49:54;;;;;;;5.87;4.20;;;22.30;90.20;;;;;;4956121;28;20970;-73
2022/09/13 10:52:36;;;;;;;5.50;5.00;;;22.30;90.10;;;;;;4973080;28;20428;-73
2022/09/13 10:55:18;;;;;;;5.33;4.23;;;22.30;90.10;;;;;;4957720;28;20451;-73
2022/09/13 10:57:51;;;;;;;6.33;4.80;;;22.40;90.10;;;;;;4973408;28;20509;-73
2022/09/13 11:00:30;;;;;;;6.17;4.30;;;22.40;90.00;;;;;;4941506;28;20440;-73
2022/09/13 11:03:05;;;;;;;4.97;4.30;;;22.40;90.00;;;;;;4938506;29;20459;-73
2022/09/13 11:05:37;;;;;;;5.07;4.67;;;22.50;90.00;;;;;;4972159;28;20527;-73
2022/09/13 11:09:14;;;;;;;4.97;4.50;;;22.50;90.00;;;;;;4954968;28;20437;-74
2022/09/13 11:12:04;;;;;;;5.97;4.53;;;22.60;90.00;;;;;;4930963;29;20598;-73
2022/09/13 11:15:01;;;;;;;5.00;4.50;;;22.60;90.00;;;;;;4930441;29;20985;-73
2022/09/13 11:17:42;;;;;;;5.03;3.97;;;22.60;90.00;;;;;;4967930;28;20528;-73
2022/09/13 11:20:29;;;;;;;4.47;4.07;;;22.70;90.00;;;;;;4974067;28;20561;-73
2022/09/13 11:23:01;;;;;;;6.10;3.90;;;22.70;90.00;;;;;;4959122;28;20460;-73
2022/09/13 11:25:27;;;;;;;4.83;4.10;;;22.70;90.00;;;;;;4955094;28;20462;-73
2022/09/13 11:28:11;;;;;;;4.97;4.47;;;22.80;90.00;;;;;;4939365;29;20518;-73
2022/09/13 11:31:03;;;;;;;9.43;4.30;;;22.80;89.90;;;;;;4945537;28;20458;-73
2022/09/13 11:33:47;;;;;;;4.50;4.10;;;22.80;89.80;;;;;;4957873;28;20809;-73
2022/09/13 11:36:37;;;;;;;8.20;4.83;;;22.90;89.70;;;;;;4955121;29;20450;-73
2022/09/13 11:39:26;;;;;;;4.97;4.40;;;22.90;89.70;;;;;;4963069;28;20489;-73
2022/09/13 11:42:27;;;;;;;7.17;4.53;;;22.90;89.60;;;;;;4955005;29;20815;-73
2022/09/13 11:45:04;;;;;;;4.50;3.80;;;23.00;89.70;;;;;;4949959;29;20457;-73
2022/09/13 11:48:01;;;;;;;4.80;4.20;;;23.00;89.60;;;;;;4955230;29;20510;-73
2022/09/13 11:50:46;;;;;;;6.77;4.57;;;23.00;89.60;;;;;;4956256;28;20782;-73
2022/09/13 11:53:31;;;;;;;4.60;4.20;;;23.00;89.60;;;;;;4943238;29;20438;-73
2022/09/13 11:56:08;;;;;;;5.03;4.57;;;23.10;89.60;;;;;;4969212;28;20951;-73
2022/09/13 11:58:59;;;;;;;4.80;3.83;;;23.10;89.40;;;;;;4973977;28;20547;-73
2022/09/13 12:01:32;;;;;;;4.20;3.80;;;23.10;89.40;;;;;;4960630;28;20450;-73
2022/09/13 12:04:13;;;;;;;4.47;4.17;;;23.20;89.40;;;;;;4973638;28;20502;-73
2022/09/13 12:06:44;;;;;;;4.13;3.70;;;23.20;89.30;;;;;;4968116;28;20437;-73
2022/09/13 12:09:25;;;;;;;5.90;4.70;;;23.20;89.10;;;;;;4970907;28;20437;-72
2022/09/13 12:12:02;;;;;;;4.93;4.20;;;23.20;89.20;;;;;;4974016;28;21159;-73
2022/09/13 12:14:50;;;;;;;4.33;3.97;;;23.30;89.00;;;;;;4958699;28;20985;-73
2022/09/13 12:17:27;;;;;;;4.40;4.00;;;23.30;89.00;;;;;;4942335;28;20839;-73
2022/09/13 12:20:03;;;;;;;5.20;3.90;;;23.30;89.00;;;;;;4962384;28;20477;-72
2022/09/13 12:22:33;;;;;;;4.47;4.07;;;23.40;89.10;;;;;;4939974;28;20442;-72
2022/09/13 12:25:06;;;;;;;5.60;4.30;;;23.40;89.00;;;;;;4971847;28;20450;-72
2022/09/13 12:27:40;;;;;;;5.40;4.70;;;23.40;88.80;;;;;;4962513;28;20499;-73
2022/09/13 12:30:18;;;;;;;5.80;4.27;;;23.50;88.80;;;;;;4935559;29;20526;-73
2022/09/13 12:32:47;;;;;;;6.10;3.70;;;23.50;88.60;;;;;;4935919;29;20498;-73
2022/09/13 12:35:32;;;;;;;4.43;4.03;;;23.50;88.50;;;;;;4951633;29;20446;-73
2022/09/13 12:38:16;;;;;;;4.57;3.90;;;23.50;88.50;;;;;;4968399;28;20540;-73
2022/09/13 12:41:22;;;;;;;6.43;3.90;;;23.50;88.40;;;;;;4965363;28;20455;-73
2022/09/13 12:43:53;;;;;;;4.17;3.77;;;23.60;88.50;;;;;;4952041;28;20410;-73
2022/09/13 12:46:38;;;;;;;5.80;3.97;;;23.60;88.40;;;;;;4961426;28;20434;-72
2022/09/13 12:49:29;;;;;;;4.03;3.63;;;23.70;88.40;;;;;;4971231;28;20445;-73
2022/09/13 12:52:31;;;;;;;4.07;3.67;;;23.70;88.40;;;;;;4970702;28;20498;-73
2022/09/13 12:55:36;;;;;;;4.30;4.00;;;23.70;88.20;;;;;;4937441;29;20972;-71
2022/09/13 12:58:20;;;;;;;4.30;3.60;;;23.70;88.10;;;;;;4949619;28;20480;-72
2022/09/13 13:01:14;;;;;;;4.30;3.90;;;23.80;88.20;;;;;;4954002;28;20513;-72
2022/09/13 13:03:54;;;;;;;5.80;4.13;;;23.80;88.20;;;;;;4969908;28;20465;-72
2022/09/13 13:06:32;;;;;;;4.50;3.73;;;23.80;88.20;;;;;;4970833;28;20748;-72
2022/09/13 13:09:20;;;;;;;5.17;4.03;;;23.90;88.20;;;;;;4969544;28;20791;-72
2022/09/13 13:11:48;;;;;;;4.03;3.63;;;23.90;88.20;;;;;;4970160;28;20422;-72
2022/09/13 13:14:45;;;;;;;4.17;3.77;;;23.90;88.00;;;;;;4950895;28;20435;-72
2022/09/13 13:17:47;;;;;;;3.90;3.60;;;23.90;87.70;;;;;;4940119;29;20431;-72
2022/09/13 13:20:51;;;;;;;6.70;4.17;;;24.00;87.80;;;;;;4923714;29;20431;-72
2022/09/13 13:23:30;;;;;;;4.30;3.90;;;24.00;87.70;;;;;;4957594;28;20418;-72
2022/09/13 13:26:07;;;;;;;4.20;3.50;;;24.10;87.70;;;;;;4954469;28;20429;-73
2022/09/13 13:28:46;;;;;;;4.90;3.70;;;24.10;87.60;;;;;;4970850;28;20454;-72
2022/09/13 13:31:30;;;;;;;4.50;3.80;;;24.10;87.50;;;;;;4968385;28;20525;-72
2022/09/13 13:34:07;;;;;;;3.80;3.50;;;24.10;87.50;;;;;;4970467;28;21002;-72
2022/09/13 13:36:42;;;;;;;3.97;3.67;;;24.20;87.50;;;;;;4962118;28;20426;-72